الصفحة الرئيسية
METAR-TAF:

METAR-TAF

مطار :

نورفيك, ألاسكا, الولايات المتحدة

دائرة عرض: 66-49-03N, خط طول: 161-01-20W, ارتفاع: 17 متر

مراقبة الطقس الحالي

تاريخ ووقت الإصدار 16 دقيقة قبل الساعة 00:56UTC
ريح 8 عقدة من الغرب/الجنوب الغربي
درجة الحرارة 11°درجة مئوية
الرطوبة 71%
ضغط 1011 hPa
الرؤية: 12.9 كم
غيوم قليلة على ارتفاع 2000 قدم

METAR: PFNO 180056Z AUTO 25008KT 8SM FEW020 11/06 A2984 RMK AO2 SLP185 T01060061 $

زمن: 17:12 (01:12 UTC)


TAF: مفقودة

أرصاد الطقس والتوقعات من أكثر من 4000 مطار (تقارير الطقس للمطار METAR والتنبؤ بالطقس بالمطارTAF).

المحطات المتاحة هي النقط الصفراء والحمراء على الخريطة.

حرك المؤشر فوق النقطة لمعرفة اسم المحطة.

ثم انقر لمعرفة أرصاد وتوقعات الطقس.

لتغيير الخارطة: اضغط على الأزرار الخضراء مع رمز الصليب الأسود للتكبير. على الزر الأخضر مع شرطة للتصغير، أو على الأسهم الخضراء للخرائط المجاورة.


METAR-TAF: